Аэропорт: Рощино. Тюмень

ICAO: USTR

METAR:
2018/07/22 20:00
USTR 222000Z 36003MPS CAVOK 12/08 Q1018 R03/CLRD65 NOSIG RMK QFE753/1005
METAR:
2018/07/22 18:00
TAF USTR 221652Z 2218/2318 36005MPS 9999 SCT030 
      TEMPO 2218/2303 5000 BR SCT010 SCT030 
      TEMPO 2303/2315 02008G13MPS